Kualapuu, Hawaii
Current Conditions -  °F | °C
As of 6:16 AM on Thursday 18 Dec 2014 (Local Time) from PHMK Reporting Station
Overcast Overcast  
Wind Chill: 72°   Ceiling: 2400
Heat Index: 72°   Visibility: 7mi
Dew Point: 70°   Wind: 13mph
Humidity: 94%   Direction: 50°NE
Pressure: 30.16"   Gusts: 23mph
Location:  21.15°N, 157.03°W
Report Text: PHMK 181616Z 05011G20KT 7SM SCT018 BKN024 OVC037 22/21 A3016 RMK AO2 P0004
Loading
Personal Weather Stations






























Interactive Weather Map New forecast layout! Learn more

10-Day Weather Forecast

Advertisements
Track Severe Weather on mobile